createdAt,value
2017-11-30T00:01:05.841Z,95496.86
2017-11-30T00:03:31.617Z,95494.70
2017-11-30T00:06:01.052Z,95497.52
2017-11-30T00:08:26.833Z,95488.34
2017-11-30T00:10:55.666Z,95489.95
2017-11-30T00:13:21.468Z,95481.25
2017-11-30T00:15:50.988Z,95482.61
2017-11-30T00:18:16.777Z,95482.09
2017-11-30T00:20:45.643Z,95485.86
2017-11-30T00:23:11.435Z,95481.98
2017-11-30T00:25:37.239Z,95484.16
2017-11-30T00:28:03.023Z,95482.72
2017-11-30T00:30:28.796Z,95477.92
2017-11-30T00:32:56.530Z,95470.70
2017-11-30T00:35:22.318Z,95472.09
2017-11-30T00:37:52.045Z,95471.67
2017-11-30T00:40:17.806Z,95466.96
2017-11-30T00:42:56.079Z,95473.73
2017-11-30T00:45:22.344Z,95468.67
2017-11-30T00:47:48.124Z,95471.13
2017-11-30T00:50:13.912Z,95474.77
2017-11-30T00:52:39.660Z,95476.53
2017-11-30T00:55:05.436Z,95467.88
2017-11-30T00:57:31.201Z,95463.76
2017-11-30T00:59:56.965Z,95459.16
2017-11-30T01:02:22.738Z,95466.21
2017-11-30T01:04:48.492Z,95464.02
2017-11-30T01:07:14.255Z,95468.77
2017-11-30T01:09:41.424Z,95465.32
2017-11-30T01:12:07.184Z,95468.20
2017-11-30T01:14:35.601Z,95468.46
2017-11-30T01:17:01.384Z,95469.16
2017-11-30T01:19:27.137Z,95477.60
2017-11-30T01:21:56.228Z,95464.93
2017-11-30T01:26:52.804Z,95470.34
2017-11-30T01:29:20.497Z,95463.92
2017-11-30T01:31:46.264Z,95461.36
2017-11-30T01:34:15.909Z,95463.55
2017-11-30T01:36:41.800Z,95464.63
2017-11-30T01:39:07.647Z,95467.55
2017-11-30T01:41:33.528Z,95469.48
2017-11-30T01:43:59.395Z,95464.13
2017-11-30T01:46:28.280Z,95461.41
2017-11-30T01:48:54.141Z,95460.61
2017-11-30T01:51:21.868Z,95460.45
2017-11-30T01:53:47.715Z,95459.59
2017-11-30T01:56:16.121Z,95460.71
2017-11-30T01:58:41.952Z,95453.72
2017-11-30T02:01:12.837Z,95446.46
2017-11-30T02:03:38.620Z,95452.18
2017-11-30T02:06:05.902Z,95449.55
2017-11-30T02:08:31.669Z,95444.80
2017-11-30T02:11:00.522Z,95446.07
2017-11-30T02:13:26.359Z,95450.46
2017-11-30T02:15:52.179Z,95453.88
2017-11-30T02:18:18.022Z,95446.73
2017-11-30T02:20:43.858Z,95451.64
2017-11-30T02:23:13.382Z,95443.03
2017-11-30T02:25:39.200Z,95441.44
2017-11-30T02:28:06.836Z,95441.70
2017-11-30T02:30:32.659Z,95444.13
2017-11-30T02:33:01.918Z,95445.98
2017-11-30T02:35:27.740Z,95446.67
2017-11-30T02:37:55.942Z,95437.92
2017-11-30T02:40:21.810Z,95437.87
2017-11-30T02:42:54.564Z,95432.78
2017-11-30T02:45:20.441Z,95434.44
2017-11-30T02:47:46.242Z,95439.47
2017-11-30T02:50:12.063Z,95435.08
2017-11-30T02:52:37.938Z,95426.65
2017-11-30T02:55:03.831Z,95426.70
2017-11-30T02:57:29.618Z,95431.30
2017-11-30T02:59:58.986Z,95429.48
2017-11-30T03:02:24.837Z,95423.66
2017-11-30T03:04:52.087Z,95423.23
2017-11-30T03:07:17.963Z,95416.45
2017-11-30T03:09:47.784Z,95406.54
2017-11-30T03:12:13.581Z,95418.77
2017-11-30T03:14:42.705Z,95414.42
2017-11-30T03:17:08.497Z,95411.02
2017-11-30T03:19:36.293Z,95410.33
2017-11-30T03:22:02.135Z,95406.05
2017-11-30T03:24:31.530Z,95403.21
2017-11-30T03:26:57.355Z,95397.61
2017-11-30T03:29:23.134Z,95396.97
2017-11-30T03:31:49.000Z,95396.16
2017-11-30T03:34:14.874Z,95399.95
2017-11-30T03:36:44.225Z,95394.81
2017-11-30T03:39:10.057Z,95395.11
2017-11-30T03:41:39.104Z,95397.23
2017-11-30T03:44:04.972Z,95395.16
2017-11-30T03:46:32.125Z,95392.64
2017-11-30T03:48:57.949Z,95391.38
2017-11-30T03:51:28.128Z,95396.02
2017-11-30T03:53:53.906Z,95400.06
2017-11-30T03:56:23.275Z,95392.75
2017-11-30T03:58:49.124Z,95391.31
2017-11-30T04:01:16.536Z,95388.42
2017-11-30T04:03:42.328Z,95389.22
2017-11-30T04:06:08.114Z,95391.31
2017-11-30T04:08:34.040Z,95388.70
2017-11-30T04:10:59.859Z,95389.72
2017-11-30T04:13:29.339Z,95387.42
2017-11-30T04:15:55.172Z,95374.48
2017-11-30T04:18:22.921Z,95385.64
2017-11-30T04:20:48.715Z,95379.61
2017-11-30T04:23:19.050Z,95375.98
2017-11-30T04:25:44.852Z,95374.47
2017-11-30T04:28:12.239Z,95379.02
2017-11-30T04:30:38.037Z,95379.31
2017-11-30T04:33:08.090Z,95378.94
2017-11-30T04:35:33.902Z,95375.44
2017-11-30T04:38:01.437Z,95378.16
2017-11-30T04:40:27.253Z,95374.33
2017-11-30T04:42:53.096Z,95378.66
2017-11-30T04:45:18.927Z,95380.58
2017-11-30T04:47:44.747Z,95380.63
2017-11-30T04:50:13.735Z,95379.63
2017-11-30T04:52:39.558Z,95376.91
2017-11-30T04:55:08.569Z,95385.86
2017-11-30T04:57:34.448Z,95390.52
2017-11-30T05:00:04.226Z,95387.05
2017-11-30T05:02:30.039Z,95388.09
2017-11-30T05:04:57.694Z,95387.67
2017-11-30T05:07:23.543Z,95387.84
2017-11-30T05:09:52.941Z,95396.59
2017-11-30T05:12:18.794Z,95396.27
2017-11-30T05:14:48.045Z,95397.33
2017-11-30T05:17:13.845Z,95404.17
2017-11-30T05:19:39.699Z,95409.25
2017-11-30T05:22:05.516Z,95405.88
2017-11-30T05:24:31.340Z,95408.33
2017-11-30T05:26:59.074Z,95405.13
2017-11-30T05:29:24.920Z,95407.36
2017-11-30T05:31:54.160Z,95409.55
2017-11-30T05:34:19.936Z,95406.88
2017-11-30T05:36:49.360Z,95408.52
2017-11-30T05:39:15.186Z,95414.83
2017-11-30T05:41:42.824Z,95414.41
2017-11-30T05:44:08.651Z,95415.53
2017-11-30T05:46:37.612Z,95410.41
2017-11-30T05:49:03.462Z,95414.63
2017-11-30T05:51:32.667Z,95416.16
2017-11-30T05:53:58.485Z,95414.61
2017-11-30T05:56:24.313Z,95417.88
2017-11-30T05:58:50.136Z,95414.92
2017-11-30T06:01:15.939Z,95418.14
2017-11-30T06:03:43.607Z,95418.02
2017-11-30T06:06:09.436Z,95416.84
2017-11-30T06:08:38.166Z,95421.55
2017-11-30T06:11:04.014Z,95419.73
2017-11-30T06:16:00.775Z,95420.55
2017-11-30T06:18:28.267Z,95423.96
2017-11-30T06:20:54.126Z,95418.67
2017-11-30T06:23:22.556Z,95422.91
2017-11-30T06:25:48.378Z,95419.00
2017-11-30T06:28:17.675Z,95419.38
2017-11-30T06:30:43.489Z,95419.05
2017-11-30T06:33:09.375Z,95421.45
2017-11-30T06:35:35.213Z,95428.04
2017-11-30T06:38:01.109Z,95418.95
2017-11-30T06:40:28.907Z,95417.39
2017-11-30T06:42:54.749Z,95424.68
2017-11-30T06:45:27.375Z,95425.16
2017-11-30T06:47:53.210Z,95421.84
2017-11-30T06:50:19.040Z,95427.45
2017-11-30T06:52:44.875Z,95427.98
2017-11-30T06:55:14.514Z,95432.80
2017-11-30T06:57:40.329Z,95426.19
2017-11-30T07:00:08.055Z,95433.61
2017-11-30T07:02:33.890Z,95431.58
2017-11-30T07:05:02.084Z,95434.73
2017-11-30T07:07:27.967Z,95434.67
2017-11-30T07:09:53.782Z,95441.36
2017-11-30T07:12:19.602Z,95440.98
2017-11-30T07:14:45.420Z,95444.70
2017-11-30T07:17:14.054Z,95438.69
2017-11-30T07:19:39.891Z,95441.08
2017-11-30T07:24:36.496Z,95452.39
2017-11-30T07:27:05.573Z,95457.73
2017-11-30T07:29:31.464Z,95453.09
2017-11-30T07:31:58.986Z,95459.17
2017-11-30T07:34:24.799Z,95460.78
2017-11-30T07:36:54.172Z,95467.93
2017-11-30T07:39:20.009Z,95466.22
2017-11-30T07:41:49.414Z,95463.59
2017-11-30T07:44:15.212Z,95468.63
2017-11-30T07:46:41.022Z,95467.82
2017-11-30T07:49:06.829Z,95470.91
2017-11-30T07:51:32.632Z,95469.78
2017-11-30T07:54:00.253Z,95470.09
2017-11-30T07:56:26.081Z,95476.50
2017-11-30T07:58:54.329Z,95478.48
2017-11-30T08:01:20.112Z,95483.75
2017-11-30T08:03:49.476Z,95481.77
2017-11-30T08:06:15.278Z,95481.79
2017-11-30T08:08:44.751Z,95478.20
2017-11-30T08:11:10.537Z,95486.84
2017-11-30T08:13:40.046Z,95484.45
2017-11-30T08:16:05.882Z,95489.91
2017-11-30T08:18:34.723Z,95488.13
2017-11-30T08:21:00.533Z,95487.44
2017-11-30T08:23:26.348Z,95490.17
2017-11-30T08:25:52.168Z,95494.17
2017-11-30T08:28:18.030Z,95492.72
2017-11-30T08:30:45.035Z,95488.67
2017-11-30T08:33:10.871Z,95490.21
2017-11-30T08:35:40.126Z,95495.19
2017-11-30T08:38:05.991Z,95497.56
2017-11-30T08:40:34.471Z,95495.17
2017-11-30T08:43:00.314Z,95489.89
2017-11-30T08:45:28.960Z,95491.39
2017-11-30T08:47:54.760Z,95488.52
2017-11-30T08:52:51.304Z,95497.88
2017-11-30T08:55:18.544Z,95493.92
2017-11-30T08:57:44.402Z,95493.92
2017-11-30T09:00:10.254Z,95498.61
2017-11-30T09:02:36.096Z,95497.05
2017-11-30T09:05:01.925Z,95503.19
2017-11-30T09:07:30.264Z,95504.94
2017-11-30T09:09:56.105Z,95500.91
2017-11-30T09:12:25.764Z,95503.05
2017-11-30T09:14:51.640Z,95506.33
2017-11-30T09:17:20.663Z,95505.58
2017-11-30T09:19:46.513Z,95507.30
2017-11-30T09:22:14.311Z,95496.73
2017-11-30T09:24:40.154Z,95497.84
2017-11-30T09:27:09.074Z,95496.28
2017-11-30T09:29:34.906Z,95502.66
2017-11-30T09:32:04.342Z,95499.60
2017-11-30T09:34:30.196Z,95509.46
2017-11-30T09:36:56.056Z,95501.82
2017-11-30T09:39:21.915Z,95501.77
2017-11-30T09:41:47.716Z,95505.88
2017-11-30T09:44:15.348Z,95508.80
2017-11-30T09:46:41.195Z,95504.64
2017-11-30T09:49:10.446Z,95507.59
2017-11-30T09:51:36.318Z,95505.03
2017-11-30T09:54:06.024Z,95499.94
2017-11-30T09:56:31.848Z,95498.72
2017-11-30T09:58:59.716Z,95497.00
2017-11-30T10:01:25.610Z,95496.95
2017-11-30T10:03:54.658Z,95495.96
2017-11-30T10:06:20.525Z,95490.52
2017-11-30T10:08:49.532Z,95493.83
2017-11-30T10:11:15.468Z,95490.20
2017-11-30T10:13:41.269Z,95483.42
2017-11-30T10:16:07.077Z,95482.55
2017-11-30T10:18:32.941Z,95482.63
2017-11-30T10:21:00.619Z,95476.75
2017-11-30T10:23:27.271Z,95469.03
2017-11-30T10:25:56.555Z,95474.44
2017-11-30T10:28:22.392Z,95471.03
2017-11-30T10:30:51.628Z,95473.83
2017-11-30T10:33:17.458Z,95472.69
2017-11-30T10:35:46.408Z,95467.69
2017-11-30T10:38:13.201Z,95470.07
2017-11-30T10:40:39.960Z,95476.44
2017-11-30T10:43:05.781Z,95480.09
2017-11-30T10:45:35.244Z,95484.42
2017-11-30T10:48:01.060Z,95486.22
2017-11-30T10:50:26.834Z,95481.20
2017-11-30T10:52:52.646Z,95484.32
2017-11-30T10:55:18.479Z,95487.27
2017-11-30T10:57:46.317Z,95482.69
2017-11-30T11:00:12.176Z,95477.59
2017-11-30T11:02:40.816Z,95476.50
2017-11-30T11:05:06.613Z,95474.05
2017-11-30T11:07:36.111Z,95472.22
2017-11-30T11:10:01.960Z,95474.05
2017-11-30T11:12:31.544Z,95469.95
2017-11-30T11:14:57.343Z,95461.84
2017-11-30T11:17:25.086Z,95457.95
2017-11-30T11:19:50.996Z,95458.47
2017-11-30T11:22:20.724Z,95456.44
2017-11-30T11:24:46.608Z,95462.81
2017-11-30T11:27:12.381Z,95462.04
2017-11-30T11:29:38.157Z,95459.45
2017-11-30T11:32:04.005Z,95470.02
2017-11-30T11:34:31.585Z,95467.84
2017-11-30T11:36:57.401Z,95463.11
2017-11-30T11:39:26.911Z,95460.11
2017-11-30T11:41:52.780Z,95464.80
2017-11-30T11:44:22.136Z,95460.81
2017-11-30T11:46:47.969Z,95464.83
2017-11-30T11:49:15.554Z,95468.53
2017-11-30T11:51:41.367Z,95464.27
2017-11-30T11:54:09.977Z,95472.30
2017-11-30T11:56:35.769Z,95464.36
2017-11-30T12:01:32.389Z,95460.95
2017-11-30T12:03:58.272Z,95458.52
2017-11-30T12:06:24.084Z,95462.86
2017-11-30T12:08:49.908Z,95457.03
2017-11-30T12:11:16.832Z,95455.58
2017-11-30T12:13:42.658Z,95464.68
2017-11-30T12:16:11.716Z,95451.83
2017-11-30T12:18:37.601Z,95447.12
2017-11-30T12:21:06.436Z,95446.13
2017-11-30T12:23:32.249Z,95449.86
2017-11-30T12:26:00.857Z,95453.33
2017-11-30T12:28:26.661Z,95449.45
2017-11-30T12:30:53.156Z,95453.79
2017-11-30T12:33:21.124Z,95448.62
2017-11-30T12:38:17.772Z,95451.52
2017-11-30T12:40:43.606Z,95451.95
2017-11-30T12:43:09.472Z,95454.25
2017-11-30T12:45:35.330Z,95451.69
2017-11-30T12:48:02.182Z,95450.09
2017-11-30T12:50:27.995Z,95450.00
2017-11-30T12:52:57.312Z,95454.81
2017-11-30T12:55:23.127Z,95451.86
2017-11-30T12:57:52.754Z,95453.20
2017-11-30T13:00:18.590Z,95450.03
2017-11-30T13:02:46.172Z,95452.97
2017-11-30T13:05:12.289Z,95447.43
2017-11-30T13:07:41.668Z,95445.31
2017-11-30T13:10:07.480Z,95447.73
2017-11-30T13:12:36.518Z,95446.27
2017-11-30T13:15:02.357Z,95447.17
2017-11-30T13:17:28.156Z,95443.27
2017-11-30T13:19:54.025Z,95442.78
2017-11-30T13:22:19.837Z,95441.69
2017-11-30T13:24:47.678Z,95433.80
2017-11-30T13:27:13.520Z,95439.55
2017-11-30T13:29:42.854Z,95439.53
2017-11-30T13:32:08.728Z,95436.48
2017-11-30T13:34:38.038Z,95435.13
2017-11-30T13:37:03.838Z,95438.38
2017-11-30T13:39:31.596Z,95442.36
2017-11-30T13:41:57.363Z,95435.98
2017-11-30T13:44:25.828Z,95441.88
2017-11-30T13:46:51.686Z,95450.80
2017-11-30T13:51:48.389Z,95452.02
2017-11-30T13:54:14.184Z,95456.80
2017-11-30T13:56:39.963Z,95444.79
2017-11-30T13:59:05.776Z,95448.23
2017-11-30T14:01:33.572Z,95450.72
2017-11-30T14:03:59.409Z,95450.73
2017-11-30T14:06:27.319Z,95452.69
2017-11-30T14:08:53.130Z,95448.34
2017-11-30T14:11:19.585Z,95446.33
2017-11-30T14:13:45.335Z,95452.70
2017-11-30T14:16:11.110Z,95446.95
2017-11-30T14:18:40.648Z,95451.95
2017-11-30T14:21:06.403Z,95453.55
2017-11-30T14:23:35.616Z,95455.20
2017-11-30T14:26:01.394Z,95452.02
2017-11-30T14:28:28.793Z,95453.92
2017-11-30T14:30:54.587Z,95447.07
2017-11-30T14:33:24.161Z,95450.12
2017-11-30T14:35:49.952Z,95442.84
2017-11-30T14:38:19.528Z,95443.63
2017-11-30T14:40:45.306Z,95437.34
2017-11-30T14:43:12.834Z,95437.16
2017-11-30T14:45:38.665Z,95437.28
2017-11-30T14:48:09.140Z,95443.02
2017-11-30T14:50:34.932Z,95444.50
2017-11-30T14:53:02.427Z,95441.25
2017-11-30T14:55:28.274Z,95449.51
2017-11-30T14:57:57.686Z,95446.52
2017-11-30T15:00:23.506Z,95446.44
2017-11-30T15:02:53.161Z,95453.30
2017-11-30T15:05:18.963Z,95458.19
2017-11-30T15:07:44.790Z,95457.28
2017-11-30T15:10:10.654Z,95460.20
2017-11-30T15:12:36.468Z,95459.09
2017-11-30T15:15:03.234Z,95468.58
2017-11-30T15:17:29.044Z,95468.33
2017-11-30T15:19:58.576Z,95467.18
2017-11-30T15:22:24.386Z,95464.95
2017-11-30T15:24:52.749Z,95465.08
2017-11-30T15:27:18.533Z,95468.84
2017-11-30T15:29:47.849Z,95466.67
2017-11-30T15:32:13.739Z,95460.62
2017-11-30T15:34:42.585Z,95465.24
2017-11-30T15:37:08.376Z,95462.32
2017-11-30T15:39:37.557Z,95461.65
2017-11-30T15:42:03.381Z,95465.87
2017-11-30T15:44:29.184Z,95460.59
2017-11-30T15:46:55.038Z,95462.11
2017-11-30T15:49:20.805Z,95472.03
2017-11-30T15:51:48.538Z,95467.92
2017-11-30T15:54:14.374Z,95466.27
2017-11-30T15:56:43.300Z,95476.47
2017-11-30T15:59:09.114Z,95477.14
2017-11-30T16:01:39.504Z,95480.50
2017-11-30T16:04:05.304Z,95473.70
2017-11-30T16:06:32.781Z,95465.30
2017-11-30T16:08:58.630Z,95465.80
2017-11-30T16:11:27.560Z,95467.38
2017-11-30T16:13:53.344Z,95469.51
2017-11-30T16:16:22.314Z,95473.90
2017-11-30T16:18:48.168Z,95472.56
2017-11-30T16:21:14.026Z,95481.31
2017-11-30T16:23:39.828Z,95480.03
2017-11-30T16:26:05.646Z,95476.75
2017-11-30T16:28:34.835Z,95482.29
2017-11-30T16:31:00.666Z,95482.45
2017-11-30T16:33:30.464Z,95488.01
2017-11-30T16:35:56.237Z,95489.37
2017-11-30T16:38:23.749Z,95493.98
2017-11-30T16:40:49.666Z,95501.23
2017-11-30T16:43:18.771Z,95509.44
2017-11-30T16:45:44.593Z,95507.67
2017-11-30T16:48:12.719Z,95508.17
2017-11-30T16:50:38.520Z,95514.80
2017-11-30T16:53:07.308Z,95514.81
2017-11-30T16:55:33.133Z,95512.52
2017-11-30T16:57:58.959Z,95518.72
2017-11-30T17:00:24.748Z,95521.08
2017-11-30T17:02:50.570Z,95523.47
2017-11-30T17:05:19.928Z,95529.04
2017-11-30T17:07:45.754Z,95528.39
2017-11-30T17:10:13.901Z,95531.17
2017-11-30T17:12:39.724Z,95535.08
2017-11-30T17:15:08.678Z,95529.84
2017-11-30T17:17:34.461Z,95527.32
2017-11-30T17:20:03.305Z,95531.86
2017-11-30T17:22:29.140Z,95535.72
2017-11-30T17:24:58.480Z,95542.19
2017-11-30T17:27:24.312Z,95544.31
2017-11-30T17:29:53.574Z,95545.17
2017-11-30T17:32:19.363Z,95551.70
2017-11-30T17:34:45.199Z,95551.01
2017-11-30T17:37:11.010Z,95550.57
2017-11-30T17:39:37.556Z,95550.31
2017-11-30T17:42:05.280Z,95554.48
2017-11-30T17:44:31.060Z,95555.16
2017-11-30T17:46:59.931Z,95549.13
2017-11-30T17:49:25.742Z,95549.39
2017-11-30T17:51:55.399Z,95544.57
2017-11-30T17:54:21.355Z,95547.36
2017-11-30T17:56:49.138Z,95548.80
2017-11-30T17:59:14.904Z,95549.53
2017-11-30T18:01:43.886Z,95552.33
2017-11-30T18:04:10.130Z,95549.77
2017-11-30T18:06:39.348Z,95546.23
2017-11-30T18:09:05.194Z,95541.14
2017-11-30T18:11:30.979Z,95540.89
2017-11-30T18:13:56.775Z,95546.67
2017-11-30T18:16:22.567Z,95542.37
2017-11-30T18:18:50.198Z,95545.17
2017-11-30T18:21:16.078Z,95551.91
2017-11-30T18:23:45.856Z,95551.96
2017-11-30T18:26:11.656Z,95544.42
2017-11-30T18:28:39.450Z,95545.17
2017-11-30T18:31:05.299Z,95546.30
2017-11-30T18:33:34.663Z,95548.01
2017-11-30T18:36:00.471Z,95544.96
2017-11-30T18:38:30.092Z,95538.44
2017-11-30T18:40:55.927Z,95544.70
2017-11-30T18:43:23.549Z,95547.48
2017-11-30T18:45:49.366Z,95541.28
2017-11-30T18:48:15.193Z,95543.84
2017-11-30T18:50:41.033Z,95541.07
2017-11-30T18:53:06.834Z,95542.19
2017-11-30T18:55:36.461Z,95558.44
2017-11-30T18:58:02.298Z,95555.91
2017-11-30T19:00:29.992Z,95560.30
2017-11-30T19:02:55.828Z,95562.97
2017-11-30T19:05:25.125Z,95554.59
2017-11-30T19:07:50.952Z,95557.31
2017-11-30T19:10:19.276Z,95560.03
2017-11-30T19:12:45.097Z,95566.08
2017-11-30T19:15:14.528Z,95565.91
2017-11-30T19:17:40.437Z,95565.06
2017-11-30T19:20:10.211Z,95576.86
2017-11-30T19:22:36.334Z,95582.80
2017-11-30T19:25:02.183Z,95581.61
2017-11-30T19:27:27.999Z,95583.54
2017-11-30T19:29:53.806Z,95573.22
2017-11-30T19:32:21.153Z,95578.69
2017-11-30T19:34:46.982Z,95583.11
2017-11-30T19:37:16.370Z,95580.11
2017-11-30T19:39:42.275Z,95578.83
2017-11-30T19:42:09.978Z,95580.49
2017-11-30T19:44:35.913Z,95577.29
2017-11-30T19:47:06.055Z,95575.53
2017-11-30T19:49:31.839Z,95584.77
2017-11-30T19:51:59.564Z,95584.08
2017-11-30T19:54:25.331Z,95588.51
2017-11-30T19:56:55.583Z,95588.76
2017-11-30T19:59:21.593Z,95594.60
2017-11-30T20:01:47.431Z,95596.35
2017-11-30T20:04:13.248Z,95601.48
2017-11-30T20:06:39.035Z,95597.36
2017-11-30T20:09:06.586Z,95598.27
2017-11-30T20:11:32.373Z,95592.48
2017-11-30T20:14:02.118Z,95592.22
2017-11-30T20:16:27.897Z,95589.06
2017-11-30T20:18:55.134Z,95595.91
2017-11-30T20:21:20.986Z,95595.91
2017-11-30T20:23:50.294Z,95596.59
2017-11-30T20:26:16.156Z,95598.58
2017-11-30T20:28:45.648Z,95599.38
2017-11-30T20:31:11.430Z,95602.69
2017-11-30T20:33:41.096Z,95607.05
2017-11-30T20:36:06.863Z,95608.45
2017-11-30T20:38:32.670Z,95604.84
2017-11-30T20:40:58.477Z,95601.09
2017-11-30T20:43:24.338Z,95600.27
2017-11-30T20:45:51.183Z,95603.45
2017-11-30T20:48:17.000Z,95599.19
2017-11-30T20:50:46.247Z,95596.72
2017-11-30T20:53:12.048Z,95602.93
2017-11-30T20:55:40.927Z,95603.71
2017-11-30T20:58:06.766Z,95607.31
2017-11-30T21:00:35.641Z,95603.04
2017-11-30T21:03:01.467Z,95600.34
2017-11-30T21:05:30.901Z,95602.02
2017-11-30T21:07:56.691Z,95598.93
2017-11-30T21:10:26.138Z,95598.23
2017-11-30T21:12:51.974Z,95603.17
2017-11-30T21:15:17.791Z,95594.68
2017-11-30T21:17:43.701Z,95597.56
2017-11-30T21:20:09.515Z,95595.48
2017-11-30T21:22:36.818Z,95596.53
2017-11-30T21:25:02.596Z,95597.39
2017-11-30T21:27:32.385Z,95596.25
2017-11-30T21:29:58.223Z,95592.84
2017-11-30T21:32:27.445Z,95592.31
2017-11-30T21:34:53.285Z,95598.67
2017-11-30T21:37:20.812Z,95602.13
2017-11-30T21:39:46.639Z,95601.66
2017-11-30T21:42:16.020Z,95597.34
2017-11-30T21:44:41.792Z,95592.73
2017-11-30T21:47:11.349Z,95596.91
2017-11-30T21:49:37.114Z,95594.64
2017-11-30T21:52:02.973Z,95592.97
2017-11-30T21:54:28.774Z,95600.03
2017-11-30T21:56:54.593Z,95604.55
2017-11-30T21:59:22.113Z,95602.32
2017-11-30T22:01:47.936Z,95603.70
2017-11-30T22:04:16.820Z,95611.70
2017-11-30T22:06:42.641Z,95609.52
2017-11-30T22:09:11.939Z,95605.49
2017-11-30T22:11:37.758Z,95612.66
2017-11-30T22:14:05.722Z,95616.77
2017-11-30T22:16:31.521Z,95621.38
2017-11-30T22:21:28.069Z,95612.19
2017-11-30T22:23:55.792Z,95613.50
2017-11-30T22:26:21.590Z,95613.50
2017-11-30T22:28:47.398Z,95612.74
2017-11-30T22:31:13.208Z,95615.35
2017-11-30T22:33:39.038Z,95612.84
2017-11-30T22:36:06.825Z,95612.66
2017-11-30T22:38:32.609Z,95617.68
2017-11-30T22:41:01.285Z,95620.80
2017-11-30T22:43:27.100Z,95624.17
2017-11-30T22:48:23.772Z,95626.49
2017-11-30T22:50:51.535Z,95623.94
2017-11-30T22:53:17.312Z,95618.91
2017-11-30T22:55:46.891Z,95528.59
2017-11-30T22:58:12.694Z,95622.89
2017-11-30T23:00:42.115Z,95620.62
2017-11-30T23:03:07.937Z,95620.33
2017-11-30T23:05:33.796Z,95621.56
2017-11-30T23:07:59.609Z,95613.07
2017-11-30T23:10:25.432Z,95616.88
2017-11-30T23:12:52.481Z,95612.27
2017-11-30T23:15:18.306Z,95605.69
2017-11-30T23:17:47.107Z,95600.28
2017-11-30T23:20:12.917Z,95602.88
2017-11-30T23:22:41.541Z,95605.96
2017-11-30T23:25:07.346Z,95611.95
2017-11-30T23:30:04.022Z,95606.81
2017-11-30T23:32:31.643Z,95610.09
2017-11-30T23:34:57.420Z,95614.08
2017-11-30T23:37:26.819Z,95588.14
2017-11-30T23:39:52.661Z,95613.27
2017-11-30T23:42:18.502Z,95612.98
2017-11-30T23:44:44.349Z,95609.84
2017-11-30T23:47:10.160Z,95608.80
2017-11-30T23:49:37.569Z,95604.13
2017-11-30T23:52:03.398Z,95607.30
2017-11-30T23:54:33.083Z,95611.62
2017-11-30T23:56:58.903Z,95610.05
2017-11-30T23:59:28.426Z,95602.55
